createdAt,value
2024-02-13T00:01:57.505Z,96835.00
2024-02-13T00:04:23.919Z,96840.69
2024-02-13T00:06:50.985Z,96846.78
2024-02-13T00:09:17.569Z,96845.41
2024-02-13T00:11:47.847Z,96850.69
2024-02-13T00:14:14.440Z,96853.34
2024-02-13T00:16:42.794Z,96858.66
2024-02-13T00:19:11.225Z,96861.09
2024-02-13T00:21:37.711Z,96872.38
2024-02-13T00:24:04.593Z,96869.13
2024-02-13T00:26:31.151Z,96870.13
2024-02-13T00:28:57.640Z,96876.72
2024-02-13T00:31:24.445Z,96877.06
2024-02-13T00:33:50.966Z,96882.22
2024-02-13T00:36:17.447Z,96889.38
2024-02-13T00:38:45.076Z,96896.16
2024-02-13T00:41:11.760Z,96897.66
2024-02-13T00:43:38.260Z,96896.22
2024-02-13T00:46:04.734Z,96900.00
2024-02-13T00:48:34.125Z,96903.97
2024-02-13T00:51:00.751Z,96911.56
2024-02-13T00:53:27.287Z,96920.75
2024-02-13T00:55:54.195Z,96926.44
2024-02-13T00:58:20.701Z,96935.97
2024-02-13T01:00:47.293Z,96938.13
2024-02-13T01:03:13.773Z,96939.00
2024-02-13T01:05:42.360Z,96939.16
2024-02-13T01:08:09.361Z,96939.94
2024-02-13T01:10:35.814Z,96943.59
2024-02-13T01:13:02.315Z,96947.59
2024-02-13T01:15:29.619Z,96951.63
2024-02-13T01:17:56.282Z,96958.09
2024-02-13T01:20:25.234Z,96956.94
2024-02-13T01:22:54.861Z,96960.31
2024-02-13T01:25:21.388Z,96966.22
2024-02-13T01:27:48.390Z,96969.84
2024-02-13T01:30:17.719Z,96964.59
2024-02-13T01:32:44.874Z,96969.28
2024-02-13T01:35:12.445Z,96972.31
2024-02-13T01:37:40.699Z,96967.50
2024-02-13T01:40:07.914Z,96973.16
2024-02-13T01:42:41.830Z,96979.69
2024-02-13T01:45:11.011Z,96974.50
2024-02-13T01:47:38.099Z,96979.03
2024-02-13T01:50:08.255Z,96976.66
2024-02-13T01:52:36.762Z,96985.78
2024-02-13T01:55:08.692Z,96994.47
2024-02-13T01:57:37.401Z,96988.03
2024-02-13T02:00:10.560Z,97001.34
2024-02-13T02:02:37.339Z,96996.94
2024-02-13T02:05:05.964Z,97002.38
2024-02-13T02:07:33.676Z,97008.22
2024-02-13T02:10:00.765Z,97010.25
2024-02-13T02:12:27.274Z,97010.25
2024-02-13T02:14:53.859Z,97017.50
2024-02-13T02:17:20.398Z,97008.66
2024-02-13T02:19:47.091Z,97010.50
2024-02-13T02:22:13.609Z,97010.28
2024-02-13T02:24:40.244Z,97013.91
2024-02-13T02:27:06.713Z,97018.13
2024-02-13T02:29:35.341Z,97019.94
2024-02-13T02:32:02.218Z,97025.16
2024-02-13T02:34:28.915Z,97024.34
2024-02-13T02:36:55.401Z,97027.56
2024-02-13T02:39:21.794Z,97028.97
2024-02-13T02:41:48.308Z,97031.22
2024-02-13T02:44:14.886Z,97031.66
2024-02-13T02:46:41.328Z,97032.47
2024-02-13T02:49:08.277Z,97031.69
2024-02-13T02:51:35.007Z,97043.97
2024-02-13T02:54:01.503Z,97038.19
2024-02-13T02:56:27.975Z,97044.22
2024-02-13T02:58:57.047Z,97045.47
2024-02-13T03:01:23.569Z,97037.19
2024-02-13T03:03:53.217Z,97046.66
2024-02-13T03:06:20.750Z,97048.25
2024-02-13T03:08:47.485Z,97050.06
2024-02-13T03:11:14.125Z,97059.13
2024-02-13T03:13:40.638Z,97058.72
2024-02-13T03:16:07.256Z,97068.75
2024-02-13T03:18:33.967Z,97061.16
2024-02-13T03:21:00.873Z,97067.19
2024-02-13T03:23:27.411Z,97070.41
2024-02-13T03:25:54.170Z,97070.41
2024-02-13T03:28:20.578Z,97068.78
2024-02-13T03:30:47.041Z,97071.97
2024-02-13T03:33:13.645Z,97070.78
2024-02-13T03:35:40.268Z,97075.59
2024-02-13T03:38:07.381Z,97076.38
2024-02-13T03:40:33.970Z,97062.34
2024-02-13T03:43:01.339Z,97069.56
2024-02-13T03:45:27.815Z,97069.19
2024-02-13T03:47:54.360Z,97069.19
2024-02-13T03:50:20.956Z,97081.25
2024-02-13T03:52:47.694Z,97081.63
2024-02-13T03:55:14.411Z,97091.66
2024-02-13T03:57:41.494Z,97084.41
2024-02-13T04:00:08.831Z,97081.16
2024-02-13T04:02:35.525Z,97083.34
2024-02-13T04:05:02.036Z,97087.09
2024-02-13T04:07:29.108Z,97081.44
2024-02-13T04:09:55.742Z,97089.25
2024-02-13T04:12:22.566Z,97086.38
2024-02-13T04:14:49.333Z,97093.03
2024-02-13T04:17:17.211Z,97096.59
2024-02-13T04:19:44.278Z,97091.00
2024-02-13T04:22:10.925Z,97103.44
2024-02-13T04:24:37.629Z,97099.75
2024-02-13T04:27:04.511Z,97100.53
2024-02-13T04:29:31.020Z,97099.66
2024-02-13T04:31:57.467Z,97096.22
2024-02-13T04:34:25.185Z,97110.41
2024-02-13T04:36:52.158Z,97113.16
2024-02-13T04:39:18.579Z,97112.31
2024-02-13T04:41:45.809Z,97116.28
2024-02-13T04:44:12.840Z,97120.66
2024-02-13T04:46:40.201Z,97118.63
2024-02-13T04:49:06.897Z,97123.38
2024-02-13T04:51:33.590Z,97115.13
2024-02-13T04:54:00.027Z,97120.72
2024-02-13T04:56:27.686Z,97126.13
2024-02-13T04:58:56.933Z,97120.91
2024-02-13T05:01:25.476Z,97126.50
2024-02-13T05:03:55.616Z,97128.09
2024-02-13T05:06:40.721Z,97131.94
2024-02-13T05:09:07.451Z,97124.13
2024-02-13T05:11:33.905Z,97127.34
2024-02-13T05:14:04.104Z,97126.72
2024-02-13T05:16:33.491Z,97128.00
2024-02-13T05:19:00.370Z,97126.16
2024-02-13T05:21:28.033Z,97128.66
2024-02-13T05:23:54.799Z,97133.22
2024-02-13T05:26:21.525Z,97125.81
2024-02-13T05:28:50.609Z,97123.75
2024-02-13T05:31:19.114Z,97127.34
2024-02-13T05:33:45.728Z,97124.88
2024-02-13T05:36:12.209Z,97125.25
2024-02-13T05:38:44.797Z,97127.69
2024-02-13T05:41:11.826Z,97128.47
2024-02-13T05:43:39.854Z,97131.34
2024-02-13T05:46:06.879Z,97122.31
2024-02-13T05:48:33.374Z,97128.53
2024-02-13T05:50:59.823Z,97132.19
2024-02-13T05:53:30.023Z,97135.66
2024-02-13T05:55:56.907Z,97137.78
2024-02-13T05:58:29.124Z,97141.25
2024-02-13T06:00:56.841Z,97146.53
2024-02-13T06:03:23.951Z,97147.81
2024-02-13T06:05:52.753Z,97151.97
2024-02-13T06:08:19.995Z,97156.13
2024-02-13T06:10:46.866Z,97154.50
2024-02-13T06:13:15.679Z,97159.72
2024-02-13T06:15:42.297Z,97165.81
2024-02-13T06:18:08.737Z,97163.75
2024-02-13T06:20:35.337Z,97161.16
2024-02-13T06:23:01.904Z,97162.56
2024-02-13T06:25:28.435Z,97168.16
2024-02-13T06:27:55.079Z,97173.38
2024-02-13T06:30:21.563Z,97182.41
2024-02-13T06:32:48.109Z,97180.69
2024-02-13T06:35:15.117Z,97178.69
2024-02-13T06:37:41.619Z,97182.06
2024-02-13T06:40:09.092Z,97193.34
2024-02-13T06:42:36.089Z,97190.38
2024-02-13T06:45:03.307Z,97192.84
2024-02-13T06:47:30.178Z,97195.09
2024-02-13T06:49:56.796Z,97195.75
2024-02-13T06:52:23.443Z,97192.25
2024-02-13T06:54:51.030Z,97203.56
2024-02-13T06:57:17.902Z,97200.94
2024-02-13T06:59:44.440Z,97204.41
2024-02-13T07:02:11.363Z,97213.84
2024-02-13T07:04:38.945Z,97216.88
2024-02-13T07:07:19.247Z,97219.25
2024-02-13T07:09:54.205Z,97220.78
2024-02-13T07:12:23.809Z,97220.09
2024-02-13T07:14:51.863Z,97225.00
2024-02-13T07:17:18.426Z,97223.06
2024-02-13T07:19:45.814Z,97214.69
2024-02-13T07:22:12.324Z,97222.00
2024-02-13T07:24:39.909Z,97227.69
2024-02-13T07:27:06.830Z,97231.38
2024-02-13T07:29:33.573Z,97230.25
2024-02-13T07:32:03.238Z,97234.69
2024-02-13T07:34:29.829Z,97234.50
2024-02-13T07:36:56.711Z,97237.44
2024-02-13T07:39:23.151Z,97236.50
2024-02-13T07:41:50.821Z,97245.41
2024-02-13T07:44:17.388Z,97237.00
2024-02-13T07:46:44.477Z,97237.19
2024-02-13T07:49:11.896Z,97243.03
2024-02-13T07:51:38.821Z,97247.97
2024-02-13T07:54:05.585Z,97255.78
2024-02-13T07:56:32.112Z,97257.69
2024-02-13T07:58:59.348Z,97259.50
2024-02-13T08:01:29.165Z,97253.69
2024-02-13T08:03:56.100Z,97255.13
2024-02-13T08:06:22.720Z,97248.63
2024-02-13T08:08:51.145Z,97252.81
2024-02-13T08:11:22.789Z,97253.66
2024-02-13T08:13:49.404Z,97257.66
2024-02-13T08:16:15.895Z,97255.06
2024-02-13T08:18:42.509Z,97257.94
2024-02-13T08:21:09.201Z,97264.34
2024-02-13T08:23:35.747Z,97267.13
2024-02-13T08:26:02.425Z,97261.94
2024-02-13T08:28:28.853Z,97276.97
2024-02-13T08:30:55.301Z,97276.63
2024-02-13T08:33:22.775Z,97278.59
2024-02-13T08:35:53.639Z,97283.47
2024-02-13T08:38:21.780Z,97281.84
2024-02-13T08:40:48.280Z,97280.19
2024-02-13T08:43:14.733Z,97278.50
2024-02-13T08:45:41.225Z,97284.38
2024-02-13T08:48:08.315Z,97281.78
2024-02-13T08:50:35.205Z,97285.78
2024-02-13T08:53:02.459Z,97289.78
2024-02-13T08:55:29.264Z,97290.44
2024-02-13T08:57:55.693Z,97292.00
2024-02-13T09:00:22.405Z,97296.16
2024-02-13T09:02:49.145Z,97295.59
2024-02-13T09:05:15.989Z,97299.38
2024-02-13T09:07:43.127Z,97301.31
2024-02-13T09:10:16.116Z,97298.44
2024-02-13T09:12:46.346Z,97297.03
2024-02-13T09:15:14.092Z,97301.25
2024-02-13T09:17:45.642Z,97307.53
2024-02-13T09:20:15.846Z,97300.28
2024-02-13T09:22:45.878Z,97293.25
2024-02-13T09:25:17.716Z,97296.19
2024-02-13T09:27:45.150Z,97299.91
2024-02-13T09:30:12.063Z,97305.88
2024-02-13T09:32:38.661Z,97298.44
2024-02-13T09:35:06.278Z,97300.78
2024-02-13T09:37:33.003Z,97306.28
2024-02-13T09:39:59.511Z,97304.53
2024-02-13T09:42:26.626Z,97296.75
2024-02-13T09:44:53.425Z,97297.09
2024-02-13T09:47:21.571Z,97301.69
2024-02-13T09:49:48.409Z,97298.59
2024-02-13T09:52:17.934Z,97297.22
2024-02-13T09:54:45.939Z,97291.69
2024-02-13T09:57:12.899Z,97295.63
2024-02-13T09:59:40.343Z,97289.63
2024-02-13T10:02:07.680Z,97301.44
2024-02-13T10:04:34.164Z,97297.09
2024-02-13T10:07:03.132Z,97302.41
2024-02-13T10:09:30.934Z,97297.41
2024-02-13T10:11:57.415Z,97301.97
2024-02-13T10:14:23.936Z,97301.97
2024-02-13T10:16:51.350Z,97303.25
2024-02-13T10:19:22.396Z,97295.72
2024-02-13T10:21:54.554Z,97304.94
2024-02-13T10:24:21.701Z,97314.13
2024-02-13T10:26:48.253Z,97294.16
2024-02-13T10:29:14.900Z,97295.56
2024-02-13T10:31:42.810Z,97299.13
2024-02-13T10:34:13.246Z,97295.81
2024-02-13T10:36:46.068Z,97299.63
2024-02-13T10:39:15.405Z,97306.34
2024-02-13T10:41:43.414Z,97309.28
2024-02-13T10:44:14.914Z,97305.34
2024-02-13T10:46:43.279Z,97299.31
2024-02-13T10:50:01.280Z,97298.41
2024-02-13T10:52:28.748Z,97317.00
2024-02-13T10:54:57.290Z,97309.41
2024-02-13T10:57:24.655Z,97304.84
2024-02-13T10:59:52.041Z,97306.31
2024-02-13T11:02:20.173Z,97308.91
2024-02-13T11:04:49.220Z,97301.81
2024-02-13T11:07:18.017Z,97310.81
2024-02-13T11:09:44.939Z,97312.78
2024-02-13T11:12:11.762Z,97306.16
2024-02-13T11:14:38.553Z,97303.84
2024-02-13T11:17:10.580Z,97297.88
2024-02-13T11:20:00.502Z,97303.81
2024-02-13T11:22:38.763Z,97306.38
2024-02-13T11:25:12.287Z,97299.75
2024-02-13T11:27:41.496Z,97304.56
2024-02-13T11:30:08.620Z,97310.78
2024-02-13T11:32:39.040Z,97308.88
2024-02-13T11:35:11.514Z,97308.88
2024-02-13T11:37:38.471Z,97314.41
2024-02-13T11:40:09.682Z,97309.88
2024-02-13T11:42:36.516Z,97309.19
2024-02-13T11:45:07.404Z,97304.25
2024-02-13T11:47:34.370Z,97303.84
2024-02-13T11:50:01.143Z,97299.16
2024-02-13T11:52:27.722Z,97293.69
2024-02-13T11:54:54.273Z,97300.50
2024-02-13T11:57:22.228Z,97288.59
2024-02-13T11:59:59.052Z,97286.31
2024-02-13T12:02:25.780Z,97280.22
2024-02-13T12:04:53.194Z,97280.63
2024-02-13T12:07:19.736Z,97282.22
2024-02-13T12:09:51.433Z,97276.19
2024-02-13T12:12:17.998Z,97280.59
2024-02-13T12:14:44.899Z,97271.84
2024-02-13T12:17:13.072Z,97272.41
2024-02-13T12:19:43.443Z,97275.63
2024-02-13T12:22:15.713Z,97268.53
2024-02-13T12:24:45.885Z,97264.31
2024-02-13T12:27:13.652Z,97269.94
2024-02-13T12:29:44.318Z,97270.41
2024-02-13T12:32:17.449Z,97265.03
2024-02-13T12:34:48.524Z,97273.63
2024-02-13T12:37:16.504Z,97262.19
2024-02-13T12:39:44.849Z,97263.03
2024-02-13T12:42:14.701Z,97270.59
2024-02-13T12:44:41.753Z,97258.53
2024-02-13T12:47:09.109Z,97262.31
2024-02-13T12:49:37.094Z,97257.44
2024-02-13T12:52:04.535Z,97257.13
2024-02-13T12:54:33.491Z,97257.56
2024-02-13T12:57:01.862Z,97246.94
2024-02-13T12:59:29.248Z,97246.22
2024-02-13T13:01:55.849Z,97238.19
2024-02-13T13:04:24.105Z,97245.34
2024-02-13T13:06:52.376Z,97243.28
2024-02-13T13:09:27.642Z,97240.91
2024-02-13T13:11:55.908Z,97241.97
2024-02-13T13:14:24.515Z,97248.38
2024-02-13T13:16:52.399Z,97248.75
2024-02-13T13:19:22.819Z,97250.84
2024-02-13T13:21:49.867Z,97246.75
2024-02-13T13:24:16.337Z,97248.28
2024-02-13T13:26:43.154Z,97243.59
2024-02-13T13:29:10.092Z,97243.31
2024-02-13T13:31:42.368Z,97238.38
2024-02-13T13:34:10.989Z,97243.38
2024-02-13T13:36:38.581Z,97245.53
2024-02-13T13:39:10.489Z,97241.84
2024-02-13T13:41:40.931Z,97241.22
2024-02-13T13:44:14.723Z,97243.97
2024-02-13T13:46:42.275Z,97241.53
2024-02-13T13:49:09.087Z,97235.69
2024-02-13T13:51:35.723Z,97242.28
2024-02-13T13:54:02.616Z,97240.38
2024-02-13T13:56:29.306Z,97238.59
2024-02-13T13:58:55.919Z,97229.09
2024-02-13T14:01:22.707Z,97231.00
2024-02-13T14:03:49.641Z,97236.19
2024-02-13T14:06:16.332Z,97236.56
2024-02-13T14:08:42.892Z,97232.19
2024-02-13T14:11:09.350Z,97249.00
2024-02-13T14:13:35.925Z,97239.41
2024-02-13T14:16:02.898Z,97245.19
2024-02-13T14:18:30.161Z,97250.38
2024-02-13T14:20:57.311Z,97250.25
2024-02-13T14:23:24.555Z,97244.78
2024-02-13T14:25:51.636Z,97250.78
2024-02-13T14:28:19.151Z,97242.31
2024-02-13T14:30:45.929Z,97251.00
2024-02-13T14:33:13.435Z,97255.41
2024-02-13T14:35:40.836Z,97251.44
2024-02-13T14:38:09.186Z,97251.69
2024-02-13T14:40:40.517Z,97250.69
2024-02-13T14:43:08.470Z,97251.66
2024-02-13T14:45:40.410Z,97251.56
2024-02-13T14:48:14.485Z,97242.25
2024-02-13T14:50:41.678Z,97239.16
2024-02-13T14:53:10.026Z,97247.59
2024-02-13T14:55:39.625Z,97250.25
2024-02-13T14:58:14.649Z,97255.66
2024-02-13T15:00:53.925Z,97251.03
2024-02-13T15:03:21.545Z,97248.56
2024-02-13T15:05:48.315Z,97261.63
2024-02-13T15:08:17.056Z,97256.28
2024-02-13T15:10:45.321Z,97246.13
2024-02-13T15:13:13.697Z,97259.78
2024-02-13T15:15:40.110Z,97246.81
2024-02-13T15:18:08.152Z,97250.06
2024-02-13T15:20:36.439Z,97243.28
2024-02-13T15:23:03.156Z,97239.47
2024-02-13T15:25:30.029Z,97244.00
2024-02-13T15:27:56.701Z,97239.44
2024-02-13T15:30:23.933Z,97239.31
2024-02-13T15:32:50.807Z,97245.00
2024-02-13T15:35:20.260Z,97240.03
2024-02-13T15:38:05.409Z,97250.84
2024-02-13T15:40:50.257Z,97251.81
2024-02-13T15:43:34.949Z,97253.75
2024-02-13T15:46:19.816Z,97247.66
2024-02-13T15:48:48.221Z,97252.97
2024-02-13T15:51:15.895Z,97250.34
2024-02-13T15:53:43.611Z,97251.91
2024-02-13T15:56:10.994Z,97244.59
2024-02-13T15:58:39.572Z,97250.31
2024-02-13T16:01:06.058Z,97246.47
2024-02-13T16:03:36.283Z,97250.84
2024-02-13T16:06:03.999Z,97262.56
2024-02-13T16:08:31.418Z,97258.91
2024-02-13T16:10:58.696Z,97264.75
2024-02-13T16:13:27.674Z,97264.84
2024-02-13T16:15:55.703Z,97268.50
2024-02-13T16:18:22.965Z,97270.69
2024-02-13T16:20:49.692Z,97277.22
2024-02-13T16:23:16.170Z,97269.63
2024-02-13T16:25:42.643Z,97275.03
2024-02-13T16:28:09.104Z,97276.84
2024-02-13T16:30:36.224Z,97277.63
2024-02-13T16:33:03.638Z,97277.19
2024-02-13T16:35:30.306Z,97282.75
2024-02-13T16:37:57.360Z,97280.94
2024-02-13T16:40:23.933Z,97284.41
2024-02-13T16:42:56.163Z,97282.22
2024-02-13T16:45:25.302Z,97290.44
2024-02-13T16:47:53.351Z,97297.41
2024-02-13T16:50:20.145Z,97296.75
2024-02-13T16:52:47.218Z,97296.44
2024-02-13T16:55:14.891Z,97311.88
2024-02-13T16:57:42.556Z,97315.97
2024-02-13T17:00:11.875Z,97314.78
2024-02-13T17:02:41.514Z,97312.56
2024-02-13T17:05:12.628Z,97316.06
2024-02-13T17:07:43.221Z,97322.59
2024-02-13T17:10:12.798Z,97329.88
2024-02-13T17:12:42.917Z,97328.69
2024-02-13T17:15:11.148Z,97327.50
2024-02-13T17:17:41.610Z,97340.03
2024-02-13T17:20:11.757Z,97345.28
2024-02-13T17:22:39.583Z,97343.69
2024-02-13T17:25:07.788Z,97337.41
2024-02-13T17:27:34.216Z,97345.72
2024-02-13T17:30:00.850Z,97346.78
2024-02-13T17:32:27.404Z,97344.63
2024-02-13T17:34:53.960Z,97340.59
2024-02-13T17:37:20.425Z,97340.09
2024-02-13T17:39:47.115Z,97339.13
2024-02-13T17:42:13.524Z,97344.41
2024-02-13T17:44:40.518Z,97333.75
2024-02-13T17:47:07.504Z,97332.34
2024-02-13T17:49:34.095Z,97335.19
2024-02-13T17:52:00.675Z,97329.16
2024-02-13T17:54:29.519Z,97329.94
2024-02-13T17:56:56.302Z,97325.53
2024-02-13T17:59:24.889Z,97326.34
2024-02-13T18:01:53.332Z,97325.34
2024-02-13T18:04:21.663Z,97322.31
2024-02-13T18:06:48.989Z,97320.31
2024-02-13T18:09:15.773Z,97324.38
2024-02-13T18:11:42.691Z,97321.94
2024-02-13T18:14:10.411Z,97324.38
2024-02-13T18:16:36.945Z,97326.75
2024-02-13T18:19:04.314Z,97322.34
2024-02-13T18:21:30.915Z,97319.91
2024-02-13T18:24:01.817Z,97323.56
2024-02-13T18:26:29.400Z,97325.13
2024-02-13T18:28:58.925Z,97331.22
2024-02-13T18:31:26.125Z,97332.63
2024-02-13T18:33:52.958Z,97334.44
2024-02-13T18:36:20.685Z,97336.03
2024-02-13T18:38:50.281Z,97329.81
2024-02-13T18:41:18.923Z,97335.47
2024-02-13T18:43:46.907Z,97335.66
2024-02-13T18:46:14.548Z,97340.91
2024-02-13T18:48:44.232Z,97336.88
2024-02-13T18:51:10.917Z,97340.09
2024-02-13T18:53:37.566Z,97333.66
2024-02-13T18:56:04.258Z,97334.44
2024-02-13T18:58:36.513Z,97336.66
2024-02-13T19:01:04.280Z,97338.09
2024-02-13T19:03:31.215Z,97333.22
2024-02-13T19:06:04.067Z,97340.47
2024-02-13T19:08:36.142Z,97343.28
2024-02-13T19:11:03.570Z,97337.25
2024-02-13T19:13:30.094Z,97340.25
2024-02-13T19:15:56.608Z,97336.03
2024-02-13T19:18:24.336Z,97337.22
2024-02-13T19:20:55.155Z,97338.81
2024-02-13T19:23:25.503Z,97334.00
2024-02-13T19:25:52.295Z,97331.19
2024-02-13T19:28:19.250Z,97334.78
2024-02-13T19:30:51.707Z,97335.38
2024-02-13T19:33:18.443Z,97337.19
2024-02-13T19:35:46.252Z,97333.13
2024-02-13T19:38:16.628Z,97330.91
2024-02-13T19:40:43.241Z,97331.28
2024-02-13T19:43:09.982Z,97328.09
2024-02-13T19:45:37.586Z,97324.63
2024-02-13T19:48:04.303Z,97329.44
2024-02-13T19:50:31.070Z,97320.75
2024-02-13T19:52:57.561Z,97324.56
2024-02-13T19:55:24.277Z,97327.13
2024-02-13T19:57:50.755Z,97324.47
2024-02-13T20:00:17.614Z,97323.63
2024-02-13T20:02:44.344Z,97329.84
2024-02-13T20:05:10.845Z,97329.25
2024-02-13T20:07:39.196Z,97327.22
2024-02-13T20:10:07.235Z,97327.22
2024-02-13T20:12:33.912Z,97330.03
2024-02-13T20:15:00.878Z,97337.63
2024-02-13T20:17:27.702Z,97338.44
2024-02-13T20:19:54.213Z,97335.41
2024-02-13T20:22:20.766Z,97339.56
2024-02-13T20:24:48.456Z,97335.94
2024-02-13T20:27:15.201Z,97336.31
2024-02-13T20:29:43.786Z,97335.06
2024-02-13T20:32:10.526Z,97334.56
2024-02-13T20:34:38.264Z,97333.34
2024-02-13T20:37:05.042Z,97333.13
2024-02-13T20:39:31.737Z,97334.06
2024-02-13T20:41:59.830Z,97336.47
2024-02-13T20:44:27.333Z,97342.28
2024-02-13T20:46:54.405Z,97335.63
2024-02-13T20:49:20.911Z,97344.81
2024-02-13T20:51:47.355Z,97339.38
2024-02-13T20:54:16.757Z,97345.94
2024-02-13T20:56:46.652Z,97343.59
2024-02-13T20:59:13.586Z,97339.13
2024-02-13T21:01:40.129Z,97343.72
2024-02-13T21:04:08.256Z,97341.09
2024-02-13T21:06:36.281Z,97343.47
2024-02-13T21:09:03.517Z,97356.88
2024-02-13T21:11:30.079Z,97351.47
2024-02-13T21:13:56.549Z,97353.03
2024-02-13T21:16:32.421Z,97349.44
2024-02-13T21:18:59.713Z,97351.41
2024-02-13T21:21:44.844Z,97359.44
2024-02-13T21:24:11.400Z,97371.44
2024-02-13T21:26:41.592Z,97372.16
2024-02-13T21:29:08.810Z,97376.13
2024-02-13T21:31:35.878Z,97383.69
2024-02-13T21:34:06.859Z,97390.09
2024-02-13T21:36:34.801Z,97382.03
2024-02-13T21:39:01.553Z,97374.84
2024-02-13T21:41:28.182Z,97385.03
2024-02-13T21:43:54.812Z,97374.53
2024-02-13T21:46:21.281Z,97383.25
2024-02-13T21:48:48.026Z,97381.00
2024-02-13T21:51:14.916Z,97371.91
2024-02-13T21:53:41.399Z,97380.75
2024-02-13T21:56:07.931Z,97380.00
2024-02-13T21:58:36.232Z,97376.41
2024-02-13T22:01:02.721Z,97372.47
2024-02-13T22:03:29.173Z,97378.53
2024-02-13T22:05:55.831Z,97377.38
2024-02-13T22:08:24.378Z,97367.38
2024-02-13T22:10:51.064Z,97371.25
2024-02-13T22:13:18.324Z,97373.13
